createdAt,value
2022-09-22T00:00:42.544Z,85.54931
2022-09-22T00:05:44.509Z,86.86051
2022-09-22T00:10:46.054Z,86.90463
2022-09-22T00:15:47.790Z,85.65926
2022-09-22T00:20:49.471Z,83.83856
2022-09-22T00:25:51.105Z,84.6699
2022-09-22T00:30:52.846Z,85.18765
2022-09-22T00:35:54.821Z,86.68338
2022-09-22T00:40:56.424Z,86.31202
2022-09-22T00:45:58.045Z,85.92318
2022-09-22T00:50:59.824Z,84.32846
2022-09-22T00:56:01.590Z,84.39321
2022-09-22T01:01:03.477Z,85.63622
2022-09-22T01:06:05.215Z,85.68867
2022-09-22T01:11:06.964Z,86.78098
2022-09-22T01:16:08.658Z,85.69072
2022-09-22T01:21:10.109Z,86.09637
2022-09-22T01:26:11.571Z,85.46885
2022-09-22T01:31:13.162Z,85.47626
2022-09-22T01:36:15.470Z,86.91755
2022-09-22T01:41:16.926Z,84.61542
2022-09-22T01:46:18.493Z,83.96576
2022-09-22T01:51:20.159Z,85.46573
2022-09-22T01:56:21.803Z,85.47911
2022-09-22T02:01:23.731Z,86.07658
2022-09-22T02:06:25.825Z,85.46923
2022-09-22T02:11:27.543Z,85.31413
2022-09-22T02:16:29.242Z,86.31481
2022-09-22T02:21:31.027Z,86.60529
2022-09-22T02:26:32.773Z,86.2865
2022-09-22T02:31:34.555Z,85.38805
2022-09-22T02:36:36.711Z,86.25666
2022-09-22T02:41:38.411Z,82.97688
2022-09-22T02:46:40.259Z,85.11008
2022-09-22T02:51:42.201Z,81.36498
2022-09-22T02:56:44.030Z,82.17361
2022-09-22T03:01:45.935Z,81.18178
2022-09-22T03:06:48.112Z,85.938
2022-09-22T03:11:49.875Z,84.98732
2022-09-22T03:16:51.602Z,83.48087
2022-09-22T03:21:53.242Z,85.68707
2022-09-22T03:26:54.948Z,87.7397
2022-09-22T03:31:56.680Z,86.37022
2022-09-22T03:36:58.730Z,90.3521
2022-09-22T03:42:00.493Z,92.64638
2022-09-22T03:47:02.282Z,93.56648
2022-09-22T03:52:03.810Z,94.56976
2022-09-22T03:57:05.582Z,95.00219
2022-09-22T04:02:07.439Z,93.78224
2022-09-22T04:07:09.223Z,98.31551
2022-09-22T04:12:10.792Z,96.41342
2022-09-22T04:17:12.340Z,94.11979
2022-09-22T04:22:13.812Z,94.67436
2022-09-22T04:27:20.116Z,94.41578
2022-09-22T04:32:23.856Z,96.69081
2022-09-22T04:37:27.439Z,93.38019
2022-09-22T04:42:29.074Z,97.87943
2022-09-22T04:47:30.793Z,96.86693
2022-09-22T04:52:32.552Z,97.4012
2022-09-22T04:57:34.309Z,96.09261
2022-09-22T05:02:36.058Z,97.26864
2022-09-22T05:07:37.927Z,95.22869
2022-09-22T05:12:39.572Z,95.96873
2022-09-22T05:17:41.328Z,94.283
2022-09-22T05:22:43.005Z,94.33219
2022-09-22T05:27:44.714Z,94.25186
2022-09-22T05:32:46.460Z,95.49812
2022-09-22T05:37:48.777Z,96.16926
2022-09-22T05:42:50.366Z,91.73552
2022-09-22T05:47:51.998Z,89.97318
2022-09-22T05:52:53.691Z,91.14771
2022-09-22T05:57:55.391Z,91.41411
2022-09-22T06:02:57.165Z,86.67831
2022-09-22T06:13:10.181Z,84.42642
2022-09-22T06:18:14.927Z,83.82831
2022-09-22T06:23:16.980Z,79.76521
2022-09-22T06:28:18.636Z,79.82999
2022-09-22T06:33:20.182Z,78.47629
2022-09-22T06:38:21.660Z,78.39419
2022-09-22T06:43:24.357Z,79.80992
2022-09-22T06:48:25.833Z,82.85918
2022-09-22T06:53:27.711Z,80.55721
2022-09-22T06:58:29.436Z,75.98519
2022-09-22T07:03:30.923Z,69.42732
2022-09-22T07:08:32.545Z,72.05603
2022-09-22T07:13:34.487Z,70.98995
2022-09-22T07:18:36.190Z,66.59748
2022-09-22T07:23:37.802Z,64.38372
2022-09-22T07:28:39.494Z,62.67458
2022-09-22T07:33:41.183Z,62.61461
2022-09-22T07:38:42.868Z,62.72074
2022-09-22T07:43:44.852Z,59.15377
2022-09-22T07:48:46.586Z,55.87866
2022-09-22T07:53:48.356Z,53.93196
2022-09-22T07:58:50.185Z,57.10414
2022-09-22T08:03:51.990Z,53.36069
2022-09-22T08:08:53.874Z,46.45092
2022-09-22T08:13:56.470Z,42.95251
2022-09-22T08:18:58.211Z,48.13919
2022-09-22T08:23:59.974Z,45.45309
2022-09-22T08:29:01.757Z,47.67577
2022-09-22T08:34:03.571Z,39.494
2022-09-22T08:39:05.467Z,39.66408
2022-09-22T08:44:07.661Z,43.08848
2022-09-22T08:49:09.406Z,36.83445
2022-09-22T08:54:10.875Z,37.67491
2022-09-22T08:59:12.383Z,37.91805
2022-09-22T09:04:13.847Z,38.04407
2022-09-22T09:09:15.408Z,35.6387
2022-09-22T09:14:17.961Z,34.33826
2022-09-22T09:19:19.424Z,31.92164
2022-09-22T09:29:52.631Z,32.93547
2022-09-22T09:34:55.911Z,28.34696
2022-09-22T09:39:57.513Z,27.25698
2022-09-22T09:44:59.273Z,27.60327
2022-09-22T09:50:00.930Z,26.51168
2022-09-22T09:55:02.581Z,26.52215
2022-09-22T10:00:04.126Z,26.34162
2022-09-22T10:05:05.610Z,26.08814
2022-09-22T10:10:07.292Z,26.91715
2022-09-22T10:15:08.930Z,25.32638
2022-09-22T10:20:10.402Z,25.92188
2022-09-22T10:25:11.944Z,25.88196
2022-09-22T10:30:13.575Z,28.62231
2022-09-22T10:35:15.102Z,25.06229
2022-09-22T10:40:16.682Z,26.47768
2022-09-22T10:45:18.529Z,24.51155
2022-09-22T10:50:20.005Z,26.86541
2022-09-22T10:55:21.454Z,27.4274
2022-09-22T11:00:23.053Z,26.47026
2022-09-22T11:05:24.456Z,26.68871
2022-09-22T11:10:26.037Z,27.0233
2022-09-22T11:15:28.265Z,25.91201
2022-09-22T11:20:30.012Z,24.53916
2022-09-22T11:25:31.742Z,25.73567
2022-09-22T11:30:33.786Z,26.52781
2022-09-22T11:35:35.369Z,26.01281
2022-09-22T11:40:36.948Z,25.28098
2022-09-22T11:45:38.830Z,27.06025
2022-09-22T11:50:40.317Z,25.0531
2022-09-22T11:55:41.863Z,25.06564
2022-09-22T12:00:43.612Z,24.74102
2022-09-22T12:05:45.166Z,24.94741
2022-09-22T12:10:46.634Z,24.76533
2022-09-22T12:15:49.374Z,24.60419
2022-09-22T12:20:50.921Z,23.84458
2022-09-22T12:25:52.400Z,24.63284
2022-09-22T12:30:54.226Z,24.60359
2022-09-22T12:35:56.019Z,22.93881
2022-09-22T12:40:57.771Z,24.50476
2022-09-22T12:45:59.796Z,24.53122
2022-09-22T12:51:01.629Z,25.89932
2022-09-22T12:56:03.358Z,24.78971
2022-09-22T13:01:05.305Z,23.91736
2022-09-22T13:06:07.092Z,23.86787
2022-09-22T13:11:08.830Z,23.78837
2022-09-22T13:16:10.853Z,22.99335
2022-09-22T13:21:12.331Z,23.36316
2022-09-22T13:26:13.828Z,23.69238
2022-09-22T13:31:15.561Z,23.09807
2022-09-22T13:36:17.220Z,22.72608
2022-09-22T13:41:18.903Z,23.07416
2022-09-22T13:46:20.860Z,21.85663
2022-09-22T13:51:22.641Z,21.99097
2022-09-22T13:56:24.375Z,21.91481
2022-09-22T14:01:26.309Z,22.22997
2022-09-22T14:06:28.073Z,22.98108
2022-09-22T14:11:29.836Z,22.11399
2022-09-22T14:16:32.103Z,21.48632
2022-09-22T14:21:33.935Z,22.14278
2022-09-22T14:26:35.367Z,22.0237
2022-09-22T14:31:37.188Z,22.15135
2022-09-22T14:36:39.083Z,22.1923
2022-09-22T14:41:40.802Z,20.90155
2022-09-22T14:46:42.785Z,20.63754
2022-09-22T14:51:44.492Z,21.01032
2022-09-22T14:56:46.242Z,21.06262
2022-09-22T15:01:48.004Z,20.98511
2022-09-22T15:06:49.562Z,20.68964
2022-09-22T15:11:51.290Z,20.35888
2022-09-22T15:16:53.325Z,21.29685
2022-09-22T15:21:54.957Z,21.31991
2022-09-22T15:26:56.701Z,21.93215
2022-09-22T15:31:58.514Z,22.41967
2022-09-22T15:37:00.262Z,22.90782
2022-09-22T15:42:02.176Z,23.8406
2022-09-22T15:47:04.137Z,24.50281
2022-09-22T15:52:05.961Z,24.4893
2022-09-22T15:57:07.695Z,25.32486
2022-09-22T16:02:09.510Z,25.39877
2022-09-22T16:07:11.375Z,25.9076
2022-09-22T16:12:12.878Z,26.13023
2022-09-22T16:17:15.092Z,26.31575
2022-09-22T16:22:16.605Z,26.78322
2022-09-22T16:27:18.256Z,26.73786
2022-09-22T16:32:19.834Z,27.28281
2022-09-22T16:37:21.379Z,27.80502
2022-09-22T16:42:23.824Z,28.40926
2022-09-22T16:47:25.879Z,27.59484
2022-09-22T16:52:27.620Z,27.84084
2022-09-22T16:57:29.264Z,27.87354
2022-09-22T17:02:31.068Z,28.08579
2022-09-22T17:07:32.722Z,29.83484
2022-09-22T17:12:34.537Z,30.14751
2022-09-22T17:17:36.420Z,30.14586
2022-09-22T17:22:38.053Z,31.36246
2022-09-22T17:27:39.744Z,30.92854
2022-09-22T17:32:41.369Z,31.88593
2022-09-22T17:37:43.010Z,32.29736
2022-09-22T17:42:44.750Z,33.50494
2022-09-22T17:47:46.699Z,33.34574
2022-09-22T17:52:48.418Z,34.51282
2022-09-22T17:57:50.131Z,34.45497
2022-09-22T18:02:51.969Z,34.98697
2022-09-22T18:07:53.892Z,35.06609
2022-09-22T18:12:55.688Z,36.82382
2022-09-22T18:17:57.648Z,35.93501
2022-09-22T18:22:59.462Z,36.47704
2022-09-22T18:28:01.277Z,36.07205
2022-09-22T18:33:03.137Z,37.19141
2022-09-22T18:38:04.886Z,36.78194
2022-09-22T18:43:06.670Z,37.63245
2022-09-22T18:48:09.737Z,37.82645
2022-09-22T18:53:11.471Z,38.74668
2022-09-22T18:58:13.189Z,39.42458
2022-09-22T19:03:14.736Z,38.43443
2022-09-22T19:08:16.306Z,39.4814
2022-09-22T19:13:17.857Z,39.03625
2022-09-22T19:18:19.768Z,39.41956
2022-09-22T19:23:21.206Z,39.51134
2022-09-22T19:28:22.741Z,37.35766
2022-09-22T19:33:24.191Z,36.11987
2022-09-22T19:38:25.632Z,37.16908
2022-09-22T19:43:27.185Z,39.60664
2022-09-22T19:48:28.919Z,39.90618
2022-09-22T19:53:30.457Z,40.91255
2022-09-22T19:58:32.183Z,41.98966
2022-09-22T20:03:33.680Z,41.84606
2022-09-22T20:08:35.132Z,42.02572
2022-09-22T20:13:36.759Z,41.52574
2022-09-22T20:18:41.349Z,40.48997
2022-09-22T20:23:43.014Z,40.07744
2022-09-22T20:28:44.514Z,40.16789
2022-09-22T20:33:45.943Z,40.12475
2022-09-22T20:38:47.599Z,40.64791
2022-09-22T20:43:49.027Z,40.50168
2022-09-22T20:48:51.228Z,41.74581
2022-09-22T20:53:53.060Z,42.01961
2022-09-22T20:58:54.785Z,43.63516
2022-09-22T21:03:56.626Z,43.24057
2022-09-22T21:08:58.371Z,44.02369
2022-09-22T21:13:59.860Z,44.27054
2022-09-22T21:19:01.963Z,44.55834
2022-09-22T21:24:03.922Z,45.48863
2022-09-22T21:29:05.720Z,44.84345
2022-09-22T21:34:07.290Z,44.54764
2022-09-22T21:39:09.002Z,45.29999
2022-09-22T21:44:10.821Z,45.53212
2022-09-22T21:49:12.564Z,45.4914
2022-09-22T21:54:14.001Z,45.57462
2022-09-22T21:59:15.436Z,46.25735
2022-09-22T22:04:17.260Z,45.8467
2022-09-22T22:09:18.834Z,45.44311
2022-09-22T22:14:20.313Z,48.27279
2022-09-22T22:19:22.044Z,48.86817
2022-09-22T22:24:23.587Z,48.85002
2022-09-22T22:29:25.227Z,49.17334
2022-09-22T22:34:26.762Z,50.12318
2022-09-22T22:39:28.437Z,50.76564
2022-09-22T22:44:29.992Z,51.63786
2022-09-22T22:49:31.718Z,53.11776
2022-09-22T22:54:33.465Z,53.48925
2022-09-22T22:59:34.919Z,53.74643
2022-09-22T23:04:36.547Z,53.73083
2022-09-22T23:09:38.266Z,55.71439
2022-09-22T23:14:40.057Z,56.90513
2022-09-22T23:19:41.884Z,55.44459
2022-09-22T23:24:43.573Z,57.44857
2022-09-22T23:29:45.035Z,55.51317
2022-09-22T23:34:46.818Z,56.25871
2022-09-22T23:39:48.245Z,57.33493
2022-09-22T23:44:49.909Z,57.44317
2022-09-22T23:49:51.626Z,55.44595
2022-09-22T23:54:53.167Z,57.28018
2022-09-22T23:59:54.701Z,56.38739
